sensor_id;sensor_type;location;lat;lon;timestamp;temperature;humidity
44517;DHT22;30223;17.182;-96.766;2022-08-14T00:01:30;24.60;68.40
44517;DHT22;30223;17.182;-96.766;2022-08-14T00:03:57;24.60;68.40
44517;DHT22;30223;17.182;-96.766;2022-08-14T00:06:24;24.60;68.50
44517;DHT22;30223;17.182;-96.766;2022-08-14T00:08:51;24.60;68.40
44517;DHT22;30223;17.182;-96.766;2022-08-14T00:11:17;24.60;68.40
44517;DHT22;30223;17.182;-96.766;2022-08-14T00:13:44;24.60;68.40
44517;DHT22;30223;17.182;-96.766;2022-08-14T00:16:13;24.60;68.40
44517;DHT22;30223;17.182;-96.766;2022-08-14T00:18:40;24.60;68.40
44517;DHT22;30223;17.182;-96.766;2022-08-14T00:21:07;24.50;68.40
44517;DHT22;30223;17.182;-96.766;2022-08-14T00:23:34;24.60;68.40
44517;DHT22;30223;17.182;-96.766;2022-08-14T00:26:01;24.60;68.40
44517;DHT22;30223;17.182;-96.766;2022-08-14T00:44:42;24.50;67.80
44517;DHT22;30223;17.182;-96.766;2022-08-14T00:47:09;24.30;63.50
44517;DHT22;30223;17.182;-96.766;2022-08-14T00:49:38;24.20;63.50
44517;DHT22;30223;17.182;-96.766;2022-08-14T00:52:05;24.20;63.50
44517;DHT22;30223;17.182;-96.766;2022-08-14T00:54:33;24.10;63.60
44517;DHT22;30223;17.182;-96.766;2022-08-14T00:57:02;24.10;63.70
44517;DHT22;30223;17.182;-96.766;2022-08-14T00:59:29;24.00;63.70
44517;DHT22;30223;17.182;-96.766;2022-08-14T01:01:58;24.00;64.50
44517;DHT22;30223;17.182;-96.766;2022-08-14T01:04:26;23.90;65.20
44517;DHT22;30223;17.182;-96.766;2022-08-14T01:06:53;23.90;65.10
44517;DHT22;30223;17.182;-96.766;2022-08-14T01:09:20;24.00;65.20
44517;DHT22;30223;17.182;-96.766;2022-08-14T01:11:49;24.00;65.20
44517;DHT22;30223;17.182;-96.766;2022-08-14T01:14:17;24.00;65.30
44517;DHT22;30223;17.182;-96.766;2022-08-14T01:16:45;24.00;65.30
44517;DHT22;30223;17.182;-96.766;2022-08-14T01:19:13;24.00;65.40
44517;DHT22;30223;17.182;-96.766;2022-08-14T01:21:58;24.00;65.40
44517;DHT22;30223;17.182;-96.766;2022-08-14T01:24:25;24.10;65.70
44517;DHT22;30223;17.182;-96.766;2022-08-14T01:26:52;24.10;65.70
44517;DHT22;30223;17.182;-96.766;2022-08-14T01:29:19;24.00;65.80
44517;DHT22;30223;17.182;-96.766;2022-08-14T01:31:47;24.10;66.00
44517;DHT22;30223;17.182;-96.766;2022-08-14T01:34:18;24.10;66.20
44517;DHT22;30223;17.182;-96.766;2022-08-14T01:36:51;24.10;66.30
44517;DHT22;30223;17.182;-96.766;2022-08-14T01:39:19;24.10;66.70
44517;DHT22;30223;17.182;-96.766;2022-08-14T01:41:47;24.10;67.00
44517;DHT22;30223;17.182;-96.766;2022-08-14T01:44:22;24.10;67.00
44517;DHT22;30223;17.182;-96.766;2022-08-14T01:46:51;24.10;67.30
44517;DHT22;30223;17.182;-96.766;2022-08-14T01:49:20;24.10;67.60
44517;DHT22;30223;17.182;-96.766;2022-08-14T01:51:48;24.10;67.80
44517;DHT22;30223;17.182;-96.766;2022-08-14T01:54:19;24.10;68.00
44517;DHT22;30223;17.182;-96.766;2022-08-14T01:56:47;24.10;68.10
44517;DHT22;30223;17.182;-96.766;2022-08-14T01:59:26;24.10;68.40
44517;DHT22;30223;17.182;-96.766;2022-08-14T02:02:00;24.10;68.50
44517;DHT22;30223;17.182;-96.766;2022-08-14T02:04:33;24.10;68.80
44517;DHT22;30223;17.182;-96.766;2022-08-14T02:07:00;24.10;69.10
44517;DHT22;30223;17.182;-96.766;2022-08-14T02:09:28;24.10;69.40
44517;DHT22;30223;17.182;-96.766;2022-08-14T02:12:01;24.10;69.40
44517;DHT22;30223;17.182;-96.766;2022-08-14T02:14:29;24.10;69.50
44517;DHT22;30223;17.182;-96.766;2022-08-14T02:16:56;24.10;69.40
44517;DHT22;30223;17.182;-96.766;2022-08-14T02:19:25;24.10;69.60
44517;DHT22;30223;17.182;-96.766;2022-08-14T02:21:56;24.10;69.50
44517;DHT22;30223;17.182;-96.766;2022-08-14T02:24:29;24.10;69.50
44517;DHT22;30223;17.182;-96.766;2022-08-14T02:26:58;24.00;69.40
44517;DHT22;30223;17.182;-96.766;2022-08-14T02:29:28;24.10;69.30
44517;DHT22;30223;17.182;-96.766;2022-08-14T02:31:58;24.00;69.30
44517;DHT22;30223;17.182;-96.766;2022-08-14T02:34:27;24.00;69.30
44517;DHT22;30223;17.182;-96.766;2022-08-14T02:37:08;24.00;69.20
44517;DHT22;30223;17.182;-96.766;2022-08-14T02:39:44;24.00;69.20
44517;DHT22;30223;17.182;-96.766;2022-08-14T02:42:14;24.00;69.20
44517;DHT22;30223;17.182;-96.766;2022-08-14T02:44:43;23.90;69.30
44517;DHT22;30223;17.182;-96.766;2022-08-14T02:47:11;24.00;69.30
44517;DHT22;30223;17.182;-96.766;2022-08-14T02:49:37;23.90;69.40
44517;DHT22;30223;17.182;-96.766;2022-08-14T02:52:05;23.90;69.20
44517;DHT22;30223;17.182;-96.766;2022-08-14T02:54:33;23.90;69.20
44517;DHT22;30223;17.182;-96.766;2022-08-14T02:57:01;23.90;69.20
44517;DHT22;30223;17.182;-96.766;2022-08-14T02:59:31;23.90;69.20
44517;DHT22;30223;17.182;-96.766;2022-08-14T03:02:00;23.90;69.70
44517;DHT22;30223;17.182;-96.766;2022-08-14T03:04:27;23.90;69.20
44517;DHT22;30223;17.182;-96.766;2022-08-14T03:06:55;23.90;69.20
44517;DHT22;30223;17.182;-96.766;2022-08-14T03:09:22;23.90;69.30
44517;DHT22;30223;17.182;-96.766;2022-08-14T03:11:49;23.90;69.30
44517;DHT22;30223;17.182;-96.766;2022-08-14T03:14:15;23.80;69.30
44517;DHT22;30223;17.182;-96.766;2022-08-14T03:16:42;23.90;69.40
44517;DHT22;30223;17.182;-96.766;2022-08-14T03:19:10;23.80;69.30
44517;DHT22;30223;17.182;-96.766;2022-08-14T03:21:39;23.80;69.40
44517;DHT22;30223;17.182;-96.766;2022-08-14T03:24:06;23.80;69.50
44517;DHT22;30223;17.182;-96.766;2022-08-14T03:26:41;23.80;69.50
44517;DHT22;30223;17.182;-96.766;2022-08-14T03:29:09;23.80;69.50
44517;DHT22;30223;17.182;-96.766;2022-08-14T03:31:38;23.80;69.60
44517;DHT22;30223;17.182;-96.766;2022-08-14T03:34:06;23.80;69.60
44517;DHT22;30223;17.182;-96.766;2022-08-14T03:36:38;23.80;69.50
44517;DHT22;30223;17.182;-96.766;2022-08-14T03:39:07;23.80;69.60
44517;DHT22;30223;17.182;-96.766;2022-08-14T03:41:34;23.80;69.70
44517;DHT22;30223;17.182;-96.766;2022-08-14T03:44:03;23.80;69.70
44517;DHT22;30223;17.182;-96.766;2022-08-14T03:46:34;23.80;69.80
44517;DHT22;30223;17.182;-96.766;2022-08-14T03:49:01;23.70;69.70
44517;DHT22;30223;17.182;-96.766;2022-08-14T03:51:29;23.70;69.60
44517;DHT22;30223;17.182;-96.766;2022-08-14T03:53:58;23.70;69.70
44517;DHT22;30223;17.182;-96.766;2022-08-14T03:56:27;23.70;69.80
44517;DHT22;30223;17.182;-96.766;2022-08-14T03:58:56;23.70;69.80
44517;DHT22;30223;17.182;-96.766;2022-08-14T04:01:23;23.70;69.90
44517;DHT22;30223;17.182;-96.766;2022-08-14T04:03:53;23.70;69.90
44517;DHT22;30223;17.182;-96.766;2022-08-14T04:06:20;23.70;69.80
44517;DHT22;30223;17.182;-96.766;2022-08-14T04:08:48;23.70;69.70
44517;DHT22;30223;17.182;-96.766;2022-08-14T04:11:15;23.70;69.70
44517;DHT22;30223;17.182;-96.766;2022-08-14T04:13:43;23.70;69.70
44517;DHT22;30223;17.182;-96.766;2022-08-14T04:16:18;23.70;69.70
44517;DHT22;30223;17.182;-96.766;2022-08-14T04:18:55;23.70;69.70
44517;DHT22;30223;17.182;-96.766;2022-08-14T04:21:25;23.60;69.70
44517;DHT22;30223;17.182;-96.766;2022-08-14T04:23:56;23.60;69.60
44517;DHT22;30223;17.182;-96.766;2022-08-14T04:26:25;23.60;69.70
44517;DHT22;30223;17.182;-96.766;2022-08-14T04:28:54;23.60;69.70
44517;DHT22;30223;17.182;-96.766;2022-08-14T04:31:22;23.60;69.70
44517;DHT22;30223;17.182;-96.766;2022-08-14T04:33:50;23.50;69.60
44517;DHT22;30223;17.182;-96.766;2022-08-14T04:36:18;23.60;69.70
44517;DHT22;30223;17.182;-96.766;2022-08-14T04:38:45;23.60;69.70
44517;DHT22;30223;17.182;-96.766;2022-08-14T04:41:30;23.50;69.70
44517;DHT22;30223;17.182;-96.766;2022-08-14T04:44:14;23.50;69.60
44517;DHT22;30223;17.182;-96.766;2022-08-14T04:46:41;23.50;69.70
44517;DHT22;30223;17.182;-96.766;2022-08-14T04:49:28;23.50;69.70
44517;DHT22;30223;17.182;-96.766;2022-08-14T04:51:55;23.50;69.70
44517;DHT22;30223;17.182;-96.766;2022-08-14T04:54:23;23.50;69.70
44517;DHT22;30223;17.182;-96.766;2022-08-14T04:56:53;23.50;69.70
44517;DHT22;30223;17.182;-96.766;2022-08-14T04:59:22;23.50;69.80
44517;DHT22;30223;17.182;-96.766;2022-08-14T05:01:49;23.50;69.70
44517;DHT22;30223;17.182;-96.766;2022-08-14T05:04:19;23.50;69.80
44517;DHT22;30223;17.182;-96.766;2022-08-14T05:06:46;23.40;69.70
44517;DHT22;30223;17.182;-96.766;2022-08-14T05:09:13;23.40;69.80
44517;DHT22;30223;17.182;-96.766;2022-08-14T05:11:40;23.50;69.70
44517;DHT22;30223;17.182;-96.766;2022-08-14T05:14:07;23.40;69.70
44517;DHT22;30223;17.182;-96.766;2022-08-14T05:16:34;23.40;69.70
44517;DHT22;30223;17.182;-96.766;2022-08-14T05:19:01;23.40;69.80
44517;DHT22;30223;17.182;-96.766;2022-08-14T05:21:29;23.40;69.80
44517;DHT22;30223;17.182;-96.766;2022-08-14T05:23:56;23.40;69.70
44517;DHT22;30223;17.182;-96.766;2022-08-14T05:26:23;23.40;69.70
44517;DHT22;30223;17.182;-96.766;2022-08-14T05:28:50;23.40;69.70
44517;DHT22;30223;17.182;-96.766;2022-08-14T05:31:17;23.40;69.80
44517;DHT22;30223;17.182;-96.766;2022-08-14T05:33:44;23.40;69.80
44517;DHT22;30223;17.182;-96.766;2022-08-14T05:36:12;23.40;69.80
44517;DHT22;30223;17.182;-96.766;2022-08-14T05:38:42;23.30;69.80
44517;DHT22;30223;17.182;-96.766;2022-08-14T05:41:16;23.30;69.80
44517;DHT22;30223;17.182;-96.766;2022-08-14T05:43:44;23.30;69.90
44517;DHT22;30223;17.182;-96.766;2022-08-14T05:46:15;23.30;70.00
44517;DHT22;30223;17.182;-96.766;2022-08-14T05:48:54;23.30;69.90
44517;DHT22;30223;17.182;-96.766;2022-08-14T05:51:23;23.30;70.00
44517;DHT22;30223;17.182;-96.766;2022-08-14T05:53:50;23.30;69.90
44517;DHT22;30223;17.182;-96.766;2022-08-14T05:56:17;23.30;69.90
44517;DHT22;30223;17.182;-96.766;2022-08-14T05:58:45;23.30;69.80
44517;DHT22;30223;17.182;-96.766;2022-08-14T06:01:11;23.30;69.80
44517;DHT22;30223;17.182;-96.766;2022-08-14T06:03:38;23.30;69.90
44517;DHT22;30223;17.182;-96.766;2022-08-14T06:06:05;23.30;70.00
44517;DHT22;30223;17.182;-96.766;2022-08-14T06:08:32;23.20;69.80
44517;DHT22;30223;17.182;-96.766;2022-08-14T06:11:01;23.20;69.80
44517;DHT22;30223;17.182;-96.766;2022-08-14T06:13:29;23.20;69.80
44517;DHT22;30223;17.182;-96.766;2022-08-14T06:15:56;23.20;69.80
44517;DHT22;30223;17.182;-96.766;2022-08-14T06:18:22;23.20;69.80
44517;DHT22;30223;17.182;-96.766;2022-08-14T06:20:50;23.20;69.80
44517;DHT22;30223;17.182;-96.766;2022-08-14T06:23:16;23.20;69.80
44517;DHT22;30223;17.182;-96.766;2022-08-14T06:25:43;23.20;69.80
44517;DHT22;30223;17.182;-96.766;2022-08-14T06:28:18;23.10;69.70
44517;DHT22;30223;17.182;-96.766;2022-08-14T06:30:45;23.20;69.80
44517;DHT22;30223;17.182;-96.766;2022-08-14T06:33:12;23.10;69.80
44517;DHT22;30223;17.182;-96.766;2022-08-14T06:35:39;23.10;69.80
44517;DHT22;30223;17.182;-96.766;2022-08-14T06:38:06;23.10;69.80
44517;DHT22;30223;17.182;-96.766;2022-08-14T06:40:35;23.10;69.80
44517;DHT22;30223;17.182;-96.766;2022-08-14T06:43:05;23.10;69.80
44517;DHT22;30223;17.182;-96.766;2022-08-14T06:45:33;23.10;69.80
44517;DHT22;30223;17.182;-96.766;2022-08-14T06:48:00;23.10;69.80
44517;DHT22;30223;17.182;-96.766;2022-08-14T06:50:28;23.10;69.80
44517;DHT22;30223;17.182;-96.766;2022-08-14T06:52:56;23.10;69.80
44517;DHT22;30223;17.182;-96.766;2022-08-14T06:55:23;23.10;69.80
44517;DHT22;30223;17.182;-96.766;2022-08-14T06:57:51;23.10;69.90
44517;DHT22;30223;17.182;-96.766;2022-08-14T07:00:21;23.10;69.70
44517;DHT22;30223;17.182;-96.766;2022-08-14T07:02:48;23.00;69.70
44517;DHT22;30223;17.182;-96.766;2022-08-14T07:05:33;23.00;69.70
44517;DHT22;30223;17.182;-96.766;2022-08-14T07:10:49;23.00;69.70
44517;DHT22;30223;17.182;-96.766;2022-08-14T07:13:17;23.00;69.80
44517;DHT22;30223;17.182;-96.766;2022-08-14T07:15:48;23.00;69.80
44517;DHT22;30223;17.182;-96.766;2022-08-14T07:18:22;23.00;69.80
44517;DHT22;30223;17.182;-96.766;2022-08-14T07:20:50;23.00;69.80
44517;DHT22;30223;17.182;-96.766;2022-08-14T07:23:18;23.00;69.90
44517;DHT22;30223;17.182;-96.766;2022-08-14T07:25:47;23.00;69.80
44517;DHT22;30223;17.182;-96.766;2022-08-14T07:28:22;23.00;69.80
44517;DHT22;30223;17.182;-96.766;2022-08-14T07:30:50;22.90;69.80
44517;DHT22;30223;17.182;-96.766;2022-08-14T07:33:18;22.90;69.80
44517;DHT22;30223;17.182;-96.766;2022-08-14T07:35:46;22.90;69.70
44517;DHT22;30223;17.182;-96.766;2022-08-14T07:38:19;22.90;69.70
44517;DHT22;30223;17.182;-96.766;2022-08-14T07:40:46;22.90;69.80
44517;DHT22;30223;17.182;-96.766;2022-08-14T07:43:13;22.90;69.70
44517;DHT22;30223;17.182;-96.766;2022-08-14T07:45:40;22.90;69.70
44517;DHT22;30223;17.182;-96.766;2022-08-14T07:48:07;22.90;69.80
44517;DHT22;30223;17.182;-96.766;2022-08-14T07:50:34;22.90;69.80
44517;DHT22;30223;17.182;-96.766;2022-08-14T07:53:01;22.90;69.80
44517;DHT22;30223;17.182;-96.766;2022-08-14T07:55:28;22.90;69.80
44517;DHT22;30223;17.182;-96.766;2022-08-14T07:57:55;22.80;69.80
44517;DHT22;30223;17.182;-96.766;2022-08-14T08:00:23;22.80;69.80
44517;DHT22;30223;17.182;-96.766;2022-08-14T08:02:52;22.80;69.80
44517;DHT22;30223;17.182;-96.766;2022-08-14T08:05:22;22.90;69.90
44517;DHT22;30223;17.182;-96.766;2022-08-14T08:07:52;22.80;69.80
44517;DHT22;30223;17.182;-96.766;2022-08-14T08:10:20;22.80;69.90
44517;DHT22;30223;17.182;-96.766;2022-08-14T08:13:19;22.80;69.90
44517;DHT22;30223;17.182;-96.766;2022-08-14T08:15:55;22.80;69.70
44517;DHT22;30223;17.182;-96.766;2022-08-14T08:18:23;22.80;69.90
44517;DHT22;30223;17.182;-96.766;2022-08-14T08:20:51;22.80;69.90
44517;DHT22;30223;17.182;-96.766;2022-08-14T08:23:20;22.80;69.90
44517;DHT22;30223;17.182;-96.766;2022-08-14T08:25:49;22.80;69.80
44517;DHT22;30223;17.182;-96.766;2022-08-14T08:28:16;22.80;69.90
44517;DHT22;30223;17.182;-96.766;2022-08-14T08:30:49;22.70;69.70
44517;DHT22;30223;17.182;-96.766;2022-08-14T08:33:18;22.70;69.80
44517;DHT22;30223;17.182;-96.766;2022-08-14T08:35:45;22.70;69.80
44517;DHT22;30223;17.182;-96.766;2022-08-14T08:38:14;22.70;69.80
44517;DHT22;30223;17.182;-96.766;2022-08-14T08:40:45;22.70;69.90
44517;DHT22;30223;17.182;-96.766;2022-08-14T08:43:31;22.70;69.80
44517;DHT22;30223;17.182;-96.766;2022-08-14T08:46:08;22.70;69.80
44517;DHT22;30223;17.182;-96.766;2022-08-14T08:48:48;22.70;69.80
44517;DHT22;30223;17.182;-96.766;2022-08-14T08:54:02;22.70;69.90
44517;DHT22;30223;17.182;-96.766;2022-08-14T08:56:51;22.70;69.80
44517;DHT22;30223;17.182;-96.766;2022-08-14T08:59:26;22.70;69.80
44517;DHT22;30223;17.182;-96.766;2022-08-14T09:01:54;22.70;69.80
44517;DHT22;30223;17.182;-96.766;2022-08-14T09:04:27;22.70;69.80
44517;DHT22;30223;17.182;-96.766;2022-08-14T09:06:56;22.70;69.80
44517;DHT22;30223;17.182;-96.766;2022-08-14T09:09:25;22.60;69.70
44517;DHT22;30223;17.182;-96.766;2022-08-14T09:11:54;22.60;69.70
44517;DHT22;30223;17.182;-96.766;2022-08-14T09:14:30;22.60;69.70
44517;DHT22;30223;17.182;-96.766;2022-08-14T09:17:00;22.60;69.70
44517;DHT22;30223;17.182;-96.766;2022-08-14T09:19:27;22.60;69.70
44517;DHT22;30223;17.182;-96.766;2022-08-14T09:21:53;22.60;69.70
44517;DHT22;30223;17.182;-96.766;2022-08-14T09:24:21;22.60;69.70
44517;DHT22;30223;17.182;-96.766;2022-08-14T09:26:48;22.60;69.70
44517;DHT22;30223;17.182;-96.766;2022-08-14T09:29:16;22.60;69.70
44517;DHT22;30223;17.182;-96.766;2022-08-14T09:31:44;22.50;69.70
44517;DHT22;30223;17.182;-96.766;2022-08-14T09:40:45;22.60;69.70
44517;DHT22;30223;17.182;-96.766;2022-08-14T09:43:28;22.60;69.80
44517;DHT22;30223;17.182;-96.766;2022-08-14T09:45:56;22.50;69.70
44517;DHT22;30223;17.182;-96.766;2022-08-14T09:48:25;22.50;69.70
44517;DHT22;30223;17.182;-96.766;2022-08-14T09:50:54;22.50;69.60
44517;DHT22;30223;17.182;-96.766;2022-08-14T09:53:35;22.50;69.70
44517;DHT22;30223;17.182;-96.766;2022-08-14T09:56:04;22.50;69.50
44517;DHT22;30223;17.182;-96.766;2022-08-14T09:58:44;22.50;69.60
44517;DHT22;30223;17.182;-96.766;2022-08-14T10:01:17;22.50;69.60
44517;DHT22;30223;17.182;-96.766;2022-08-14T10:03:52;22.50;69.60
44517;DHT22;30223;17.182;-96.766;2022-08-14T10:08:58;22.50;69.70
44517;DHT22;30223;17.182;-96.766;2022-08-14T10:11:35;22.50;69.60
44517;DHT22;30223;17.182;-96.766;2022-08-14T10:14:16;22.50;69.60
44517;DHT22;30223;17.182;-96.766;2022-08-14T10:16:54;22.40;69.50
44517;DHT22;30223;17.182;-96.766;2022-08-14T10:19:22;22.40;69.60
44517;DHT22;30223;17.182;-96.766;2022-08-14T10:22:08;22.40;69.50
44517;DHT22;30223;17.182;-96.766;2022-08-14T10:24:44;22.40;69.50
44517;DHT22;30223;17.182;-96.766;2022-08-14T10:27:15;22.40;69.50
44517;DHT22;30223;17.182;-96.766;2022-08-14T10:29:48;22.40;69.50
44517;DHT22;30223;17.182;-96.766;2022-08-14T10:32:15;22.40;69.50
44517;DHT22;30223;17.182;-96.766;2022-08-14T10:34:42;22.40;69.50
44517;DHT22;30223;17.182;-96.766;2022-08-14T10:37:10;22.40;69.50
44517;DHT22;30223;17.182;-96.766;2022-08-14T10:39:42;22.40;69.50
44517;DHT22;30223;17.182;-96.766;2022-08-14T10:42:13;22.40;69.50
44517;DHT22;30223;17.182;-96.766;2022-08-14T10:44:42;22.40;69.50
44517;DHT22;30223;17.182;-96.766;2022-08-14T10:47:14;22.30;69.50
44517;DHT22;30223;17.182;-96.766;2022-08-14T10:49:58;22.30;69.50
44517;DHT22;30223;17.182;-96.766;2022-08-14T10:52:27;22.30;69.50
44517;DHT22;30223;17.182;-96.766;2022-08-14T10:55:11;22.30;69.50
44517;DHT22;30223;17.182;-96.766;2022-08-14T10:57:55;22.30;69.50
44517;DHT22;30223;17.182;-96.766;2022-08-14T11:00:24;22.30;69.40
44517;DHT22;30223;17.182;-96.766;2022-08-14T11:03:05;22.30;69.50
44517;DHT22;30223;17.182;-96.766;2022-08-14T11:05:47;22.30;69.50
44517;DHT22;30223;17.182;-96.766;2022-08-14T11:08:16;22.30;69.50
44517;DHT22;30223;17.182;-96.766;2022-08-14T11:13:18;22.30;69.50
44517;DHT22;30223;17.182;-96.766;2022-08-14T11:15:47;22.20;69.50
44517;DHT22;30223;17.182;-96.766;2022-08-14T11:18:17;22.20;69.40
44517;DHT22;30223;17.182;-96.766;2022-08-14T11:20:55;22.20;69.50
44517;DHT22;30223;17.182;-96.766;2022-08-14T11:23:29;22.20;69.40
44517;DHT22;30223;17.182;-96.766;2022-08-14T11:25:58;22.20;69.50
44517;DHT22;30223;17.182;-96.766;2022-08-14T11:28:27;22.20;69.50
44517;DHT22;30223;17.182;-96.766;2022-08-14T11:30:58;22.20;69.50
44517;DHT22;30223;17.182;-96.766;2022-08-14T11:33:28;22.20;70.00
44517;DHT22;30223;17.182;-96.766;2022-08-14T11:35:58;22.20;69.40
44517;DHT22;30223;17.182;-96.766;2022-08-14T11:38:36;22.20;69.50
44517;DHT22;30223;17.182;-96.766;2022-08-14T11:41:03;22.10;69.30
44517;DHT22;30223;17.182;-96.766;2022-08-14T11:43:30;22.10;69.40
44517;DHT22;30223;17.182;-96.766;2022-08-14T11:45:59;22.10;69.40
44517;DHT22;30223;17.182;-96.766;2022-08-14T11:48:26;22.10;69.40
44517;DHT22;30223;17.182;-96.766;2022-08-14T11:50:53;22.10;69.40
44517;DHT22;30223;17.182;-96.766;2022-08-14T11:53:27;22.10;69.40
44517;DHT22;30223;17.182;-96.766;2022-08-14T11:56:00;22.10;69.40
44517;DHT22;30223;17.182;-96.766;2022-08-14T11:58:35;22.10;69.40
44517;DHT22;30223;17.182;-96.766;2022-08-14T12:01:05;22.10;69.40
44517;DHT22;30223;17.182;-96.766;2022-08-14T12:03:37;22.00;69.40
44517;DHT22;30223;17.182;-96.766;2022-08-14T12:06:12;22.10;69.40
44517;DHT22;30223;17.182;-96.766;2022-08-14T12:08:39;22.00;69.40
44517;DHT22;30223;17.182;-96.766;2022-08-14T12:11:08;22.00;69.40
44517;DHT22;30223;17.182;-96.766;2022-08-14T12:13:35;22.00;69.40
44517;DHT22;30223;17.182;-96.766;2022-08-14T12:16:04;22.00;69.40
44517;DHT22;30223;17.182;-96.766;2022-08-14T12:18:39;22.00;69.40
44517;DHT22;30223;17.182;-96.766;2022-08-14T12:21:21;22.00;69.40
44517;DHT22;30223;17.182;-96.766;2022-08-14T12:24:07;22.00;69.40
44517;DHT22;30223;17.182;-96.766;2022-08-14T12:26:35;21.90;69.30
44517;DHT22;30223;17.182;-96.766;2022-08-14T12:29:12;21.90;69.40
44517;DHT22;30223;17.182;-96.766;2022-08-14T12:31:42;21.90;69.40
44517;DHT22;30223;17.182;-96.766;2022-08-14T12:34:13;21.90;69.40
44517;DHT22;30223;17.182;-96.766;2022-08-14T12:36:43;21.90;69.40
44517;DHT22;30223;17.182;-96.766;2022-08-14T12:39:22;21.90;69.40
44517;DHT22;30223;17.182;-96.766;2022-08-14T12:41:50;21.90;69.40
44517;DHT22;30223;17.182;-96.766;2022-08-14T12:44:33;21.90;69.40
44517;DHT22;30223;17.182;-96.766;2022-08-14T12:47:12;21.90;69.40
44517;DHT22;30223;17.182;-96.766;2022-08-14T12:49:52;21.80;69.40
44517;DHT22;30223;17.182;-96.766;2022-08-14T12:52:39;21.80;69.40
44517;DHT22;30223;17.182;-96.766;2022-08-14T12:55:14;21.80;69.30
44517;DHT22;30223;17.182;-96.766;2022-08-14T12:57:46;21.80;69.40
44517;DHT22;30223;17.182;-96.766;2022-08-14T13:00:17;21.80;69.40
44517;DHT22;30223;17.182;-96.766;2022-08-14T13:02:46;21.80;69.40
44517;DHT22;30223;17.182;-96.766;2022-08-14T13:05:16;21.80;69.50
44517;DHT22;30223;17.182;-96.766;2022-08-14T13:07:47;21.80;69.50
44517;DHT22;30223;17.182;-96.766;2022-08-14T13:10:18;21.80;69.60
44517;DHT22;30223;17.182;-96.766;2022-08-14T13:12:50;21.80;69.50
44517;DHT22;30223;17.182;-96.766;2022-08-14T13:15:17;21.80;69.60
44517;DHT22;30223;17.182;-96.766;2022-08-14T13:17:49;21.70;69.50
44517;DHT22;30223;17.182;-96.766;2022-08-14T13:20:21;21.70;69.50
44517;DHT22;30223;17.182;-96.766;2022-08-14T13:22:49;21.70;69.50
44517;DHT22;30223;17.182;-96.766;2022-08-14T13:25:20;21.70;69.60
44517;DHT22;30223;17.182;-96.766;2022-08-14T13:27:53;21.70;69.60
44517;DHT22;30223;17.182;-96.766;2022-08-14T13:30:22;21.70;69.60
44517;DHT22;30223;17.182;-96.766;2022-08-14T13:32:53;21.70;69.60
44517;DHT22;30223;17.182;-96.766;2022-08-14T13:35:20;21.70;69.60
44517;DHT22;30223;17.182;-96.766;2022-08-14T13:37:48;21.60;69.50
44517;DHT22;30223;17.182;-96.766;2022-08-14T13:40:21;21.70;69.60
44517;DHT22;30223;17.182;-96.766;2022-08-14T13:42:49;21.70;69.60
44517;DHT22;30223;17.182;-96.766;2022-08-14T13:45:18;21.60;69.50
44517;DHT22;30223;17.182;-96.766;2022-08-14T13:47:47;21.70;69.70
44517;DHT22;30223;17.182;-96.766;2022-08-14T13:50:15;21.70;69.60
44517;DHT22;30223;17.182;-96.766;2022-08-14T13:52:47;21.60;69.50
44517;DHT22;30223;17.182;-96.766;2022-08-14T13:55:26;21.70;69.60
44517;DHT22;30223;17.182;-96.766;2022-08-14T13:58:01;21.70;69.60
44517;DHT22;30223;17.182;-96.766;2022-08-14T14:00:34;21.60;69.50
44517;DHT22;30223;17.182;-96.766;2022-08-14T14:03:04;21.60;69.60
44517;DHT22;30223;17.182;-96.766;2022-08-14T14:05:33;21.60;69.50
44517;DHT22;30223;17.182;-96.766;2022-08-14T14:08:04;21.60;69.50
44517;DHT22;30223;17.182;-96.766;2022-08-14T14:10:35;21.60;69.60
44517;DHT22;30223;17.182;-96.766;2022-08-14T14:13:02;21.60;69.60
44517;DHT22;30223;17.182;-96.766;2022-08-14T14:15:30;21.60;69.60
44517;DHT22;30223;17.182;-96.766;2022-08-14T14:17:56;21.60;69.60
44517;DHT22;30223;17.182;-96.766;2022-08-14T14:20:24;21.60;69.60
44517;DHT22;30223;17.182;-96.766;2022-08-14T14:22:51;21.60;69.60
44517;DHT22;30223;17.182;-96.766;2022-08-14T14:25:19;21.60;69.60
44517;DHT22;30223;17.182;-96.766;2022-08-14T14:27:47;21.60;69.60
44517;DHT22;30223;17.182;-96.766;2022-08-14T14:30:16;21.60;69.60
44517;DHT22;30223;17.182;-96.766;2022-08-14T14:32:46;21.60;69.60
44517;DHT22;30223;17.182;-96.766;2022-08-14T14:35:17;21.60;69.60
44517;DHT22;30223;17.182;-96.766;2022-08-14T14:37:47;21.60;69.60
44517;DHT22;30223;17.182;-96.766;2022-08-14T14:40:15;21.60;69.60
44517;DHT22;30223;17.182;-96.766;2022-08-14T14:42:48;21.60;69.60
44517;DHT22;30223;17.182;-96.766;2022-08-14T14:45:18;21.60;69.50
44517;DHT22;30223;17.182;-96.766;2022-08-14T14:47:47;21.60;69.60
44517;DHT22;30223;17.182;-96.766;2022-08-14T14:50:13;21.50;69.60
44517;DHT22;30223;17.182;-96.766;2022-08-14T14:52:41;21.60;69.50
44517;DHT22;30223;17.182;-96.766;2022-08-14T14:55:09;21.60;69.70
44517;DHT22;30223;17.182;-96.766;2022-08-14T14:57:40;21.60;69.60
44517;DHT22;30223;17.182;-96.766;2022-08-14T15:00:15;21.60;69.50
44517;DHT22;30223;17.182;-96.766;2022-08-14T15:02:47;21.60;69.60
44517;DHT22;30223;17.182;-96.766;2022-08-14T15:05:15;21.60;69.50
44517;DHT22;30223;17.182;-96.766;2022-08-14T15:07:43;21.60;69.60
44517;DHT22;30223;17.182;-96.766;2022-08-14T15:10:13;21.60;69.60
44517;DHT22;30223;17.182;-96.766;2022-08-14T15:12:40;21.60;69.60
44517;DHT22;30223;17.182;-96.766;2022-08-14T15:15:08;21.60;69.60
44517;DHT22;30223;17.182;-96.766;2022-08-14T15:17:36;21.70;69.60
44517;DHT22;30223;17.182;-96.766;2022-08-14T15:20:05;21.70;69.60
44517;DHT22;30223;17.182;-96.766;2022-08-14T15:22:35;21.70;69.60
44517;DHT22;30223;17.182;-96.766;2022-08-14T15:25:09;21.70;69.60
44517;DHT22;30223;17.182;-96.766;2022-08-14T15:27:39;21.70;69.70
44517;DHT22;30223;17.182;-96.766;2022-08-14T15:30:08;21.70;69.60
44517;DHT22;30223;17.182;-96.766;2022-08-14T15:32:35;21.70;69.70
44517;DHT22;30223;17.182;-96.766;2022-08-14T15:35:02;21.70;69.70
44517;DHT22;30223;17.182;-96.766;2022-08-14T15:37:29;21.80;69.70
44517;DHT22;30223;17.182;-96.766;2022-08-14T15:39:55;21.70;69.70
44517;DHT22;30223;17.182;-96.766;2022-08-14T15:42:23;21.80;69.70
44517;DHT22;30223;17.182;-96.766;2022-08-14T15:44:51;21.80;69.80
44517;DHT22;30223;17.182;-96.766;2022-08-14T15:47:18;21.80;70.40
44517;DHT22;30223;17.182;-96.766;2022-08-14T15:49:46;21.80;69.80
44517;DHT22;30223;17.182;-96.766;2022-08-14T15:52:13;21.80;69.80
44517;DHT22;30223;17.182;-96.766;2022-08-14T15:54:40;21.80;69.80